createdAt,value
2018-05-03T00:00:42.508Z,100824.19
2018-05-03T00:03:08.248Z,100817.63
2018-05-03T00:05:33.976Z,100824.78
2018-05-03T00:07:59.692Z,100821.11
2018-05-03T00:10:25.429Z,100814.73
2018-05-03T00:12:51.164Z,100801.86
2018-05-03T00:15:16.904Z,100806.53
2018-05-03T00:17:42.628Z,100800.19
2018-05-03T00:20:08.357Z,100798.40
2018-05-03T00:22:34.076Z,100805.41
2018-05-03T00:24:59.799Z,100803.64
2018-05-03T00:27:25.520Z,100798.52
2018-05-03T00:29:51.252Z,100804.05
2018-05-03T00:32:16.969Z,100801.51
2018-05-03T00:34:42.697Z,100796.58
2018-05-03T00:37:08.411Z,100794.50
2018-05-03T00:39:34.132Z,100789.30
2018-05-03T00:41:59.848Z,100782.45
2018-05-03T00:44:25.581Z,100788.28
2018-05-03T00:46:51.313Z,100789.86
2018-05-03T00:49:17.044Z,100783.86
2018-05-03T00:51:42.784Z,100791.20
2018-05-03T00:54:20.817Z,100788.88
2018-05-03T00:56:46.544Z,100791.48
2018-05-03T00:59:12.287Z,100799.16
2018-05-03T01:01:38.001Z,100795.41
2018-05-03T01:04:03.733Z,100796.58
2018-05-03T01:06:29.465Z,100801.45
2018-05-03T01:08:55.240Z,100798.58
2018-05-03T01:11:20.976Z,100796.55
2018-05-03T01:13:46.713Z,100796.55
2018-05-03T01:16:12.459Z,100803.56
2018-05-03T01:18:38.184Z,100806.50
2018-05-03T01:21:03.912Z,100801.62
2018-05-03T01:23:29.633Z,100804.89
2018-05-03T01:25:55.368Z,100806.59
2018-05-03T01:28:21.090Z,100806.08
2018-05-03T01:30:46.824Z,100808.33
2018-05-03T01:33:12.556Z,100799.46
2018-05-03T01:35:50.853Z,100792.66
2018-05-03T01:38:16.580Z,100785.36
2018-05-03T01:40:42.317Z,100799.36
2018-05-03T01:43:08.040Z,100794.28
2018-05-03T01:45:33.772Z,100785.75
2018-05-03T01:47:59.488Z,100785.11
2018-05-03T01:50:25.223Z,100781.09
2018-05-03T01:52:50.955Z,100786.37
2018-05-03T01:55:16.764Z,100784.29
2018-05-03T01:57:42.492Z,100788.82
2018-05-03T02:00:08.228Z,100790.63
2018-05-03T02:02:33.960Z,100788.00
2018-05-03T02:04:59.707Z,100798.17
2018-05-03T02:07:25.439Z,100803.14
2018-05-03T02:09:51.168Z,100802.09
2018-05-03T02:12:16.891Z,100799.81
2018-05-03T02:14:42.612Z,100808.52
2018-05-03T02:17:08.347Z,100806.50
2018-05-03T02:19:34.085Z,100811.91
2018-05-03T02:21:59.803Z,100807.52
2018-05-03T02:24:25.527Z,100803.60
2018-05-03T02:26:51.256Z,100806.37
2018-05-03T02:29:16.993Z,100807.02
2018-05-03T02:31:42.729Z,100801.53
2018-05-03T02:34:08.461Z,100797.59
2018-05-03T02:36:34.200Z,100796.73
2018-05-03T02:38:59.924Z,100799.41
2018-05-03T02:41:25.656Z,100804.95
2018-05-03T02:43:51.371Z,100810.95
2018-05-03T02:46:17.108Z,100805.97
2018-05-03T02:48:42.836Z,100813.97
2018-05-03T02:51:08.568Z,100811.30
2018-05-03T02:53:34.307Z,100809.89
2018-05-03T02:56:00.043Z,100816.11
2018-05-03T02:58:38.272Z,100816.22
2018-05-03T03:01:22.813Z,100807.81
2018-05-03T03:04:07.293Z,100811.61
2018-05-03T03:06:51.620Z,100810.92
2018-05-03T03:09:36.019Z,100812.55
2018-05-03T03:26:01.423Z,100827.94
2018-05-03T03:28:45.929Z,100830.16
2018-05-03T03:31:30.355Z,100830.96
2018-05-03T03:34:15.972Z,100842.86
2018-05-03T03:40:08.272Z,100845.05
2018-05-03T03:56:14.069Z,100878.81
2018-05-03T03:58:39.808Z,100878.02
2018-05-03T04:01:05.532Z,100878.33
2018-05-03T04:03:31.267Z,100880.28
2018-05-03T04:05:57.008Z,100883.47
2018-05-03T04:08:22.749Z,100888.61
2018-05-03T04:10:48.476Z,100888.40
2018-05-03T04:13:14.196Z,100879.84
2018-05-03T04:15:39.925Z,100885.53
2018-05-03T04:18:17.900Z,100882.87
2018-05-03T04:21:07.559Z,100888.91
2018-05-03T04:23:45.887Z,100895.86
2018-05-03T04:26:11.628Z,100895.50
2018-05-03T04:28:37.369Z,100891.02
2018-05-03T04:31:03.095Z,100902.09
2018-05-03T04:33:28.832Z,100902.27
2018-05-03T04:35:54.551Z,100909.36
2018-05-03T04:38:20.324Z,100902.58
2018-05-03T04:40:46.065Z,100905.88
2018-05-03T04:43:11.803Z,100911.91
2018-05-03T04:45:37.536Z,100912.38
2018-05-03T04:48:03.268Z,100907.09
2018-05-03T04:50:29.016Z,100910.38
2018-05-03T04:52:54.768Z,100920.46
2018-05-03T04:55:20.529Z,100918.44
2018-05-03T04:57:46.368Z,100928.73
2018-05-03T05:00:12.201Z,100934.94
2018-05-03T05:02:37.937Z,100936.30
2018-05-03T05:05:03.679Z,100942.90
2018-05-03T05:07:29.415Z,100943.81
2018-05-03T05:09:55.153Z,100951.20
2018-05-03T05:12:20.888Z,100957.43
2018-05-03T05:14:46.619Z,100961.77
2018-05-03T05:17:12.341Z,100963.56
2018-05-03T05:19:38.075Z,100964.28
2018-05-03T05:22:03.808Z,100964.95
2018-05-03T05:24:29.622Z,100973.97
2018-05-03T05:26:55.465Z,100982.09
2018-05-03T05:29:21.198Z,100983.42
2018-05-03T05:31:46.936Z,100993.92
2018-05-03T05:34:12.657Z,100993.75
2018-05-03T05:36:38.393Z,100996.36
2018-05-03T05:39:04.198Z,101002.39
2018-05-03T05:41:29.899Z,101002.97
2018-05-03T05:43:55.645Z,101014.43
2018-05-03T05:46:21.419Z,101020.02
2018-05-03T05:48:47.161Z,101021.92
2018-05-03T05:51:13.098Z,101032.59
2018-05-03T05:53:38.836Z,101025.81
2018-05-03T05:56:04.559Z,101027.70
2018-05-03T05:58:30.293Z,101033.48
2018-05-03T06:00:56.028Z,101034.17
2018-05-03T06:03:21.765Z,101038.73
2018-05-03T06:05:47.512Z,101040.18
2018-05-03T06:08:13.250Z,101050.00
2018-05-03T06:10:38.995Z,101056.20
2018-05-03T06:13:04.733Z,101062.30
2018-05-03T06:15:30.467Z,101062.82
2018-05-03T06:17:56.198Z,101067.98
2018-05-03T06:20:21.928Z,101066.52
2018-05-03T06:22:47.670Z,101073.77
2018-05-03T06:25:13.404Z,101072.09
2018-05-03T06:27:39.146Z,101069.77
2018-05-03T06:30:04.891Z,101076.79
2018-05-03T06:32:30.632Z,101079.88
2018-05-03T06:34:56.363Z,101084.78
2018-05-03T06:37:22.117Z,101085.28
2018-05-03T06:39:47.864Z,101093.50
2018-05-03T06:42:13.600Z,101097.98
2018-05-03T06:44:39.327Z,101107.84
2018-05-03T06:47:05.072Z,101110.34
2018-05-03T06:49:30.796Z,101110.14
2018-05-03T06:51:56.546Z,101120.69
2018-05-03T06:54:22.276Z,101126.88
2018-05-03T06:56:48.020Z,101122.62
2018-05-03T06:59:13.752Z,101130.74
2018-05-03T07:01:39.480Z,101140.88
2018-05-03T07:04:05.300Z,101136.32
2018-05-03T07:06:30.955Z,101142.44
2018-05-03T07:08:56.676Z,101148.69
2018-05-03T07:11:22.397Z,101160.77
2018-05-03T07:13:48.119Z,101164.81
2018-05-03T07:16:13.842Z,101167.34
2018-05-03T07:18:39.575Z,101174.83
2018-05-03T07:21:05.304Z,101171.25
2018-05-03T07:23:31.045Z,101175.30
2018-05-03T07:25:56.793Z,101183.79
2018-05-03T07:28:22.529Z,101185.27
2018-05-03T07:30:48.260Z,101191.91
2018-05-03T07:33:14.001Z,101195.38
2018-05-03T07:35:39.728Z,101202.79
2018-05-03T07:38:05.457Z,101202.80
2018-05-03T07:40:31.170Z,101207.82
2018-05-03T07:42:56.894Z,101213.88
2018-05-03T07:45:22.603Z,101224.45
2018-05-03T07:47:48.333Z,101227.16
2018-05-03T07:50:14.065Z,101235.03
2018-05-03T07:52:39.800Z,101235.52
2018-05-03T07:55:05.518Z,101245.00
2018-05-03T07:57:31.264Z,101240.23
2018-05-03T07:59:56.996Z,101245.83
2018-05-03T08:02:22.740Z,101248.59
2018-05-03T08:04:48.455Z,101257.59
2018-05-03T08:07:14.183Z,101257.27
2018-05-03T08:09:39.912Z,101262.07
2018-05-03T08:12:05.635Z,101267.42
2018-05-03T08:14:31.375Z,101277.66
2018-05-03T08:16:57.156Z,101274.45
2018-05-03T08:19:22.864Z,101272.83
2018-05-03T08:21:48.588Z,101282.27
2018-05-03T08:24:14.324Z,101284.43
2018-05-03T08:26:40.052Z,101289.41
2018-05-03T08:29:05.785Z,101297.58
2018-05-03T08:31:31.527Z,101302.11
2018-05-03T08:33:57.261Z,101308.22
2018-05-03T08:36:22.980Z,101304.44
2018-05-03T08:38:48.716Z,101316.76
2018-05-03T08:41:14.445Z,101317.95
2018-05-03T08:43:40.196Z,101310.61
2018-05-03T08:46:05.933Z,101321.17
2018-05-03T08:48:31.677Z,101323.80
2018-05-03T08:50:57.415Z,101333.84
2018-05-03T08:53:23.170Z,101331.66
2018-05-03T08:55:48.940Z,101329.72
2018-05-03T08:58:14.676Z,101329.00
2018-05-03T09:00:40.405Z,101332.37
2018-05-03T09:03:06.150Z,101336.36
2018-05-03T09:05:31.868Z,101341.27
2018-05-03T09:07:57.601Z,101343.97
2018-05-03T09:10:23.324Z,101344.14
2018-05-03T09:12:49.045Z,101353.98
2018-05-03T09:15:14.781Z,101353.41
2018-05-03T09:17:40.508Z,101355.45
2018-05-03T09:20:06.252Z,101358.83
2018-05-03T09:22:32.029Z,101371.64
2018-05-03T09:24:57.711Z,101374.50
2018-05-03T09:27:23.432Z,101370.45
2018-05-03T09:29:49.156Z,101369.60
2018-05-03T09:32:14.885Z,101378.85
2018-05-03T09:34:40.611Z,101380.40
2018-05-03T09:37:06.320Z,101384.55
2018-05-03T09:39:32.052Z,101385.47
2018-05-03T09:41:57.763Z,101386.34
2018-05-03T09:44:23.551Z,101387.14
2018-05-03T09:46:49.217Z,101391.86
2018-05-03T09:49:14.960Z,101398.27
2018-05-03T09:51:40.684Z,101401.99
2018-05-03T09:54:06.416Z,101400.41
2018-05-03T09:56:32.132Z,101411.77
2018-05-03T09:58:57.874Z,101416.95
2018-05-03T10:01:23.587Z,101421.23
2018-05-03T10:03:49.328Z,101422.94
2018-05-03T10:06:15.060Z,101410.53
2018-05-03T10:08:40.799Z,101420.90
2018-05-03T10:11:06.523Z,101430.58
2018-05-03T10:13:32.245Z,101425.33
2018-05-03T10:15:57.961Z,101428.85
2018-05-03T10:18:23.718Z,101428.45
2018-05-03T10:20:49.415Z,101431.30
2018-05-03T10:23:15.144Z,101436.58
2018-05-03T10:25:40.881Z,101433.80
2018-05-03T10:28:06.598Z,101435.00
2018-05-03T10:30:32.332Z,101441.08
2018-05-03T10:32:58.048Z,101440.64
2018-05-03T10:35:23.772Z,101443.23
2018-05-03T10:37:49.503Z,101448.59
2018-05-03T10:40:15.224Z,101447.61
2018-05-03T10:42:40.952Z,101446.82
2018-05-03T10:45:06.681Z,101444.91
2018-05-03T10:47:32.423Z,101460.84
2018-05-03T10:49:58.165Z,101454.91
2018-05-03T10:52:23.884Z,101468.08
2018-05-03T10:54:49.616Z,101459.06
2018-05-03T10:57:15.341Z,101466.50
2018-05-03T10:59:41.071Z,101463.85
2018-05-03T11:02:06.779Z,101466.22
2018-05-03T11:04:32.492Z,101471.27
2018-05-03T11:06:58.239Z,101472.64
2018-05-03T11:09:23.968Z,101470.03
2018-05-03T11:11:49.691Z,101469.62
2018-05-03T11:14:15.425Z,101467.23
2018-05-03T11:16:41.210Z,101461.47
2018-05-03T11:19:06.874Z,101470.79
2018-05-03T11:21:32.583Z,101465.20
2018-05-03T11:23:58.325Z,101463.19
2018-05-03T11:26:24.048Z,101471.58
2018-05-03T11:28:49.772Z,101480.41
2018-05-03T11:31:15.500Z,101486.48
2018-05-03T11:33:41.220Z,101483.58
2018-05-03T11:36:06.948Z,101461.83
2018-05-03T11:38:32.659Z,101479.66
2018-05-03T11:40:58.376Z,101489.42
2018-05-03T11:43:24.096Z,101500.27
2018-05-03T11:45:49.829Z,101503.21
2018-05-03T11:48:15.539Z,101502.91
2018-05-03T11:50:41.271Z,101511.52
2018-05-03T11:53:06.993Z,101519.64
2018-05-03T11:55:32.728Z,101511.56
2018-05-03T11:57:58.464Z,101511.54
2018-05-03T12:00:31.226Z,101519.63
2018-05-03T12:02:56.969Z,101526.59
2018-05-03T12:05:22.699Z,101518.53
2018-05-03T12:07:48.419Z,101518.48
2018-05-03T12:10:14.160Z,101513.14
2018-05-03T12:12:39.871Z,101511.00
2018-05-03T12:15:05.600Z,101509.03
2018-05-03T12:17:31.323Z,101512.78
2018-05-03T12:19:57.059Z,101515.83
2018-05-03T12:22:22.789Z,101520.05
2018-05-03T12:24:48.519Z,101530.73
2018-05-03T12:27:14.236Z,101529.98
2018-05-03T12:29:39.971Z,101530.31
2018-05-03T12:32:05.705Z,101537.95
2018-05-03T12:34:31.444Z,101543.27
2018-05-03T12:36:57.175Z,101550.20
2018-05-03T12:39:22.896Z,101551.13
2018-05-03T12:41:48.632Z,101557.39
2018-05-03T12:44:14.352Z,101544.57
2018-05-03T12:46:40.085Z,101547.80
2018-05-03T12:49:05.806Z,101546.39
2018-05-03T12:51:31.552Z,101552.50
2018-05-03T12:53:57.272Z,101545.75
2018-05-03T12:56:23.005Z,101546.09
2018-05-03T12:58:48.728Z,101556.98
2018-05-03T13:01:14.454Z,101553.70
2018-05-03T13:03:40.180Z,101548.75
2018-05-03T13:06:05.908Z,101555.84
2018-05-03T13:08:31.628Z,101563.50
2018-05-03T13:10:57.368Z,101555.00
2018-05-03T13:13:23.081Z,101560.50
2018-05-03T13:15:48.823Z,101563.40
2018-05-03T13:18:14.548Z,101565.94
2018-05-03T13:20:40.279Z,101567.19
2018-05-03T13:23:05.995Z,101566.18
2018-05-03T13:25:31.723Z,101566.64
2018-05-03T13:27:57.450Z,101570.94
2018-05-03T13:30:23.200Z,101570.16
2018-05-03T13:32:48.903Z,101583.76
2018-05-03T13:35:14.631Z,101583.45
2018-05-03T13:37:40.361Z,101576.88
2018-05-03T13:40:06.107Z,101570.78
2018-05-03T13:42:31.826Z,101572.50
2018-05-03T13:44:57.548Z,101574.84
2018-05-03T13:47:23.451Z,101582.45
2018-05-03T13:49:49.004Z,101573.77
2018-05-03T13:52:14.732Z,101576.68
2018-05-03T13:54:40.454Z,101581.78
2018-05-03T13:57:06.199Z,101591.36
2018-05-03T13:59:31.924Z,101587.13
2018-05-03T14:01:57.663Z,101581.67
2018-05-03T14:04:23.374Z,101582.03
2018-05-03T14:06:50.660Z,101587.59
2018-05-03T14:09:20.319Z,101595.84
2018-05-03T14:11:48.784Z,101592.78
2018-05-03T14:14:14.984Z,101598.36
2018-05-03T14:16:41.158Z,101604.94
2018-05-03T14:19:08.076Z,101605.63
2018-05-03T14:21:34.223Z,101614.20
2018-05-03T14:24:00.367Z,101619.35
2018-05-03T14:26:26.145Z,101618.27
2018-05-03T14:28:51.864Z,101620.84
2018-05-03T14:31:17.606Z,101617.78
2018-05-03T14:33:43.326Z,101609.89
2018-05-03T14:36:09.060Z,101620.91
2018-05-03T14:38:34.775Z,101619.54
2018-05-03T14:41:00.511Z,101616.02
2018-05-03T14:43:26.239Z,101622.74
2018-05-03T14:45:51.971Z,101627.16
2018-05-03T14:48:17.692Z,101629.81
2018-05-03T14:50:43.424Z,101636.28
2018-05-03T14:53:09.151Z,101640.02
2018-05-03T14:55:34.880Z,101642.71
2018-05-03T14:58:00.620Z,101645.28
2018-05-03T15:00:26.341Z,101648.53
2018-05-03T15:02:52.071Z,101639.87
2018-05-03T15:05:17.795Z,101644.40
2018-05-03T15:07:43.529Z,101656.25
2018-05-03T15:10:09.261Z,101642.98
2018-05-03T15:12:35.052Z,101649.51
2018-05-03T15:15:02.214Z,101642.63
2018-05-03T15:17:29.385Z,101640.84
2018-05-03T15:19:55.339Z,101647.60
2018-05-03T15:22:21.076Z,101645.59
2018-05-03T15:24:46.797Z,101642.53
2018-05-03T15:27:12.525Z,101651.80
2018-05-03T15:29:38.255Z,101646.06
2018-05-03T15:32:03.985Z,101647.83
2018-05-03T15:34:29.714Z,101646.75
2018-05-03T15:36:56.559Z,101650.37
2018-05-03T15:39:23.380Z,101654.72
2018-05-03T15:41:49.128Z,101656.25
2018-05-03T15:44:14.852Z,101661.33
2018-05-03T15:46:40.582Z,101661.05
2018-05-03T15:49:06.312Z,101669.14
2018-05-03T15:51:32.047Z,101665.16
2018-05-03T15:53:58.956Z,101667.86
2018-05-03T15:56:25.891Z,101677.56
2018-05-03T15:58:52.369Z,101676.46
2018-05-03T16:01:18.112Z,101678.02
2018-05-03T16:03:43.834Z,101678.97
2018-05-03T16:06:09.548Z,101679.34
2018-05-03T16:08:35.451Z,101665.44
2018-05-03T16:11:01.181Z,101683.66
2018-05-03T16:13:27.143Z,101686.86
2018-05-03T16:15:52.965Z,101690.09
2018-05-03T16:18:18.702Z,101689.77
2018-05-03T16:20:44.476Z,101689.53
2018-05-03T16:23:10.428Z,101691.75
2018-05-03T16:25:36.199Z,101695.88
2018-05-03T16:28:01.936Z,101703.75
2018-05-03T16:30:27.760Z,101706.92
2018-05-03T16:32:53.636Z,101705.81
2018-05-03T16:35:19.352Z,101710.12
2018-05-03T16:37:45.128Z,101712.45
2018-05-03T16:40:10.869Z,101712.27
2018-05-03T16:42:36.623Z,101712.92
2018-05-03T16:45:02.361Z,101716.44
2018-05-03T16:47:28.079Z,101717.87
2018-05-03T16:49:53.799Z,101721.97
2018-05-03T16:52:19.632Z,101714.36
2018-05-03T16:54:45.288Z,101711.33
2018-05-03T16:57:11.018Z,101719.34
2018-05-03T16:59:36.747Z,101713.86
2018-05-03T17:02:02.475Z,101723.12
2018-05-03T17:04:28.210Z,101722.98
2018-05-03T17:06:53.948Z,101737.36
2018-05-03T17:09:19.681Z,101727.48
2018-05-03T17:11:45.411Z,101730.20
2018-05-03T17:14:11.176Z,101735.09
2018-05-03T17:16:36.880Z,101737.72
2018-05-03T17:19:02.629Z,101736.23
2018-05-03T17:21:28.364Z,101745.63
2018-05-03T17:23:54.101Z,101749.48
2018-05-03T17:26:19.821Z,101751.72
2018-05-03T17:28:45.574Z,101753.50
2018-05-03T17:31:13.780Z,101751.21
2018-05-03T17:33:39.692Z,101753.04
2018-05-03T17:36:06.726Z,101757.38
2018-05-03T17:38:32.717Z,101757.91
2018-05-03T17:40:58.643Z,101767.58
2018-05-03T17:43:24.647Z,101767.02
2018-05-03T17:45:50.446Z,101774.64
2018-05-03T17:48:16.191Z,101775.70
2018-05-03T17:50:41.918Z,101778.17
2018-05-03T17:53:07.647Z,101785.94
2018-05-03T17:55:33.620Z,101790.63
2018-05-03T17:57:59.454Z,101792.38
2018-05-03T18:00:25.315Z,101796.55
2018-05-03T18:02:51.136Z,101806.34
2018-05-03T18:05:16.996Z,101803.01
2018-05-03T18:07:42.956Z,101811.14
2018-05-03T18:10:08.753Z,101812.87
2018-05-03T18:12:34.608Z,101811.28
2018-05-03T18:15:00.420Z,101825.95
2018-05-03T18:17:26.184Z,101821.20
2018-05-03T18:19:51.908Z,101821.75
2018-05-03T18:22:17.641Z,101825.84
2018-05-03T18:24:44.869Z,101829.51
2018-05-03T18:27:11.715Z,101836.23
2018-05-03T18:29:37.832Z,101839.03
2018-05-03T18:32:03.703Z,101843.03
2018-05-03T18:34:29.760Z,101856.31
2018-05-03T18:36:55.492Z,101854.66
2018-05-03T18:39:21.240Z,101862.20
2018-05-03T18:41:47.000Z,101861.42
2018-05-03T18:44:13.104Z,101872.45
2018-05-03T18:46:39.048Z,101876.98
2018-05-03T18:49:04.792Z,101875.25
2018-05-03T18:51:30.607Z,101875.75
2018-05-03T18:53:56.361Z,101873.20
2018-05-03T18:56:22.101Z,101876.28
2018-05-03T18:58:47.854Z,101875.48
2018-05-03T19:01:13.845Z,101883.91
2018-05-03T19:03:39.597Z,101885.69
2018-05-03T19:06:05.337Z,101896.73
2018-05-03T19:08:32.479Z,101899.84
2018-05-03T19:10:59.606Z,101905.16
2018-05-03T19:13:25.757Z,101905.18
2018-05-03T19:15:51.912Z,101910.97
2018-05-03T19:18:17.953Z,101910.99
2018-05-03T19:20:44.057Z,101913.70
2018-05-03T19:23:09.973Z,101912.38
2018-05-03T19:25:35.920Z,101914.16
2018-05-03T19:28:02.156Z,101919.88
2018-05-03T19:30:28.337Z,101922.10
2018-05-03T19:32:54.099Z,101927.42
2018-05-03T19:35:19.835Z,101927.88
2018-05-03T19:37:45.882Z,101918.23
2018-05-03T19:40:11.624Z,101930.55
2018-05-03T19:42:37.695Z,101919.13
2018-05-03T19:45:03.444Z,101931.94
2018-05-03T19:47:29.165Z,101933.67
2018-05-03T19:49:54.897Z,101931.94
2018-05-03T19:52:20.728Z,101938.55
2018-05-03T19:54:46.498Z,101938.54
2018-05-03T19:57:12.601Z,101943.39
2018-05-03T19:59:38.617Z,101942.95
2018-05-03T20:02:04.468Z,101942.09
2018-05-03T20:04:30.747Z,101944.75
2018-05-03T20:06:56.515Z,101949.12
2018-05-03T20:09:22.503Z,101950.47
2018-05-03T20:11:48.484Z,101949.15
2018-05-03T20:14:14.674Z,101953.09
2018-05-03T20:16:40.427Z,101947.83
2018-05-03T20:19:06.481Z,101954.43
2018-05-03T20:21:32.309Z,101954.37
2018-05-03T20:23:58.472Z,101949.55
2018-05-03T20:26:24.609Z,101956.13
2018-05-03T20:28:50.387Z,101960.05
2018-05-03T20:31:16.121Z,101951.70
2018-05-03T20:33:41.881Z,101956.08
2018-05-03T20:36:07.605Z,101963.94
2018-05-03T20:38:33.329Z,101956.52
2018-05-03T20:40:59.057Z,101954.72
2018-05-03T20:43:24.781Z,101954.33
2018-05-03T20:45:50.568Z,101953.43
2018-05-03T20:48:16.255Z,101959.58
2018-05-03T20:50:42.052Z,101959.94
2018-05-03T20:53:07.775Z,101957.25
2018-05-03T20:55:33.508Z,101967.70
2018-05-03T20:57:59.376Z,101965.09
2018-05-03T21:00:25.115Z,101959.80
2018-05-03T21:02:50.847Z,101968.11
2018-05-03T21:05:16.598Z,101965.52
2018-05-03T21:07:42.345Z,101972.94
2018-05-03T21:10:08.090Z,101974.66
2018-05-03T21:12:33.857Z,101978.14
2018-05-03T21:14:59.541Z,101977.69
2018-05-03T21:17:25.272Z,101985.50
2018-05-03T21:19:51.021Z,101985.08
2018-05-03T21:22:16.753Z,101987.62
2018-05-03T21:24:42.501Z,101986.28
2018-05-03T21:27:08.226Z,101988.89
2018-05-03T21:29:34.012Z,101993.63
2018-05-03T21:31:59.753Z,101988.92
2018-05-03T21:34:25.496Z,101987.64
2018-05-03T21:36:51.223Z,101990.63
2018-05-03T21:39:16.968Z,101989.64
2018-05-03T21:41:42.686Z,101993.56
2018-05-03T21:44:08.434Z,102001.88
2018-05-03T21:46:34.160Z,101988.29
2018-05-03T21:48:59.904Z,101991.73
2018-05-03T21:51:25.644Z,102000.89
2018-05-03T21:53:51.567Z,102002.95
2018-05-03T21:56:17.292Z,102000.27
2018-05-03T21:58:43.025Z,102008.50
2018-05-03T22:01:08.769Z,102011.23
2018-05-03T22:03:35.220Z,102013.91
2018-05-03T22:06:00.981Z,102013.75
2018-05-03T22:08:26.697Z,102013.77
2018-05-03T22:10:52.432Z,102010.75
2018-05-03T22:13:18.151Z,102016.92
2018-05-03T22:15:44.004Z,102026.56
2018-05-03T22:18:09.731Z,102020.89
2018-05-03T22:20:35.467Z,102028.74
2018-05-03T22:23:01.190Z,102036.88
2018-05-03T22:25:26.908Z,102034.23
2018-05-03T22:27:52.637Z,102030.29
2018-05-03T22:30:18.388Z,102031.05
2018-05-03T22:32:44.100Z,102023.92
2018-05-03T22:35:09.832Z,102025.16
2018-05-03T22:37:35.560Z,102020.99
2018-05-03T22:40:01.300Z,102021.27
2018-05-03T22:42:27.031Z,102030.58
2018-05-03T22:44:52.775Z,102029.81
2018-05-03T22:47:18.509Z,102029.27
2018-05-03T22:49:44.253Z,102032.31
2018-05-03T22:52:10.001Z,102038.75
2018-05-03T22:54:35.796Z,102046.02
2018-05-03T22:57:01.606Z,102041.30
2018-05-03T22:59:27.357Z,102043.61
2018-05-03T23:01:53.103Z,102034.89
2018-05-03T23:04:18.836Z,102035.61
2018-05-03T23:06:44.590Z,102039.87
2018-05-03T23:09:10.305Z,102040.09
2018-05-03T23:11:36.048Z,102043.09
2018-05-03T23:14:01.783Z,102041.56
2018-05-03T23:16:27.525Z,102045.09
2018-05-03T23:18:53.261Z,102051.82
2018-05-03T23:21:19.065Z,102051.15
2018-05-03T23:23:44.801Z,102045.48
2018-05-03T23:26:10.545Z,102054.31
2018-05-03T23:28:36.280Z,102059.37
2018-05-03T23:31:02.015Z,102058.97
2018-05-03T23:33:27.776Z,102061.68
2018-05-03T23:35:53.519Z,102065.86
2018-05-03T23:38:19.271Z,102060.61
2018-05-03T23:40:45.016Z,102060.48
2018-05-03T23:43:11.797Z,102069.48
2018-05-03T23:45:37.563Z,102066.28
2018-05-03T23:48:03.312Z,102066.25
2018-05-03T23:50:29.052Z,102073.94
2018-05-03T23:52:54.791Z,102077.25
2018-05-03T23:55:20.539Z,102082.84
2018-05-03T23:57:46.260Z,102083.58
